createdAt,value
2023-03-24T00:01:13.876Z,99.73
2023-03-24T00:03:17.987Z,99.85
2023-03-24T00:05:21.974Z,99.96
2023-03-24T00:07:26.467Z,100.00
2023-03-24T00:09:30.130Z,100.00
2023-03-24T00:11:34.471Z,100.00
2023-03-24T00:13:39.813Z,100.00
2023-03-24T00:15:41.534Z,100.00
2023-03-24T00:17:43.121Z,100.00
2023-03-24T00:19:47.322Z,100.00
2023-03-24T00:21:48.894Z,100.00
2023-03-24T00:23:54.481Z,100.00
2023-03-24T00:26:03.356Z,100.00
2023-03-24T00:28:06.843Z,100.00
2023-03-24T00:30:11.458Z,100.00
2023-03-24T00:32:13.041Z,100.00
2023-03-24T00:34:14.843Z,100.00
2023-03-24T00:36:18.359Z,100.00
2023-03-24T00:38:21.701Z,100.00
2023-03-24T00:40:23.875Z,100.00
2023-03-24T00:42:26.087Z,100.00
2023-03-24T00:44:28.191Z,100.00
2023-03-24T00:46:30.041Z,100.00
2023-03-24T00:48:33.312Z,100.00
2023-03-24T00:50:34.927Z,100.00
2023-03-24T00:52:38.185Z,100.00
2023-03-24T00:54:41.033Z,100.00
2023-03-24T00:56:43.688Z,100.00
2023-03-24T00:58:49.265Z,100.00
2023-03-24T01:00:53.936Z,100.00
2023-03-24T01:02:58.128Z,100.00
2023-03-24T01:05:02.151Z,100.00
2023-03-24T01:07:03.735Z,100.00
2023-03-24T01:09:06.775Z,100.00
2023-03-24T01:11:08.308Z,100.00
2023-03-24T01:13:10.450Z,100.00
2023-03-24T01:15:16.090Z,100.00
2023-03-24T01:17:19.386Z,100.00
2023-03-24T01:19:21.208Z,100.00
2023-03-24T01:21:25.395Z,100.00
2023-03-24T01:23:27.750Z,100.00
2023-03-24T01:25:30.556Z,100.00
2023-03-24T01:27:32.709Z,100.00
2023-03-24T01:29:34.293Z,100.00
2023-03-24T01:31:36.462Z,100.00
2023-03-24T01:33:38.478Z,100.00
2023-03-24T01:35:40.045Z,100.00
2023-03-24T01:37:42.346Z,100.00
2023-03-24T01:39:43.881Z,100.00
2023-03-24T01:41:45.543Z,100.00
2023-03-24T01:43:47.068Z,100.00
2023-03-24T01:45:51.434Z,100.00
2023-03-24T01:47:53.078Z,100.00
2023-03-24T01:50:02.994Z,100.00
2023-03-24T01:52:09.504Z,100.00
2023-03-24T01:54:36.845Z,100.00
2023-03-24T01:56:42.846Z,100.00
2023-03-24T01:58:49.846Z,100.00
2023-03-24T02:00:51.540Z,100.00
2023-03-24T02:02:58.724Z,100.00
2023-03-24T02:05:04.383Z,100.00
2023-03-24T02:07:36.570Z,100.00
2023-03-24T02:09:38.226Z,100.00
2023-03-24T02:11:41.174Z,100.00
2023-03-24T02:13:43.490Z,100.00
2023-03-24T02:15:55.467Z,100.00
2023-03-24T02:18:27.667Z,100.00
2023-03-24T02:21:09.189Z,100.00
2023-03-24T02:23:31.938Z,100.00
2023-03-24T02:25:46.832Z,100.00
2023-03-24T02:27:48.807Z,100.00
2023-03-24T02:30:22.467Z,100.00
2023-03-24T02:32:29.811Z,100.00
2023-03-24T02:34:57.957Z,100.00
2023-03-24T02:37:28.881Z,100.00
2023-03-24T02:39:45.616Z,100.00
2023-03-24T02:41:55.952Z,100.00
2023-03-24T02:44:15.715Z,100.00
2023-03-24T02:46:27.663Z,100.00
2023-03-24T02:48:38.005Z,100.00
2023-03-24T02:50:39.456Z,100.00
2023-03-24T02:52:53.044Z,100.00
2023-03-24T02:55:23.320Z,100.00
2023-03-24T02:57:28.046Z,100.00
2023-03-24T02:59:48.920Z,100.00
2023-03-24T03:02:03.370Z,100.00
2023-03-24T03:04:11.618Z,100.00
2023-03-24T03:06:18.671Z,100.00
2023-03-24T03:08:23.013Z,100.00
2023-03-24T03:10:30.450Z,100.00
2023-03-24T03:12:35.972Z,100.00
2023-03-24T03:15:01.115Z,100.00
2023-03-24T03:17:15.844Z,100.00
2023-03-24T03:19:22.241Z,100.00
2023-03-24T03:21:26.960Z,100.00
2023-03-24T03:23:35.855Z,100.00
2023-03-24T03:25:50.354Z,100.00
2023-03-24T03:27:56.712Z,100.00
2023-03-24T03:30:09.095Z,100.00
2023-03-24T03:32:18.548Z,100.00
2023-03-24T03:34:43.079Z,100.00
2023-03-24T03:36:59.638Z,100.00
2023-03-24T03:39:33.501Z,100.00
2023-03-24T03:41:35.305Z,100.00
2023-03-24T03:43:37.658Z,100.00
2023-03-24T03:45:39.238Z,100.00
2023-03-24T03:47:41.454Z,100.00
2023-03-24T03:49:44.047Z,100.00
2023-03-24T03:51:45.808Z,100.00
2023-03-24T03:53:50.301Z,100.00
2023-03-24T03:55:52.352Z,100.00
2023-03-24T03:57:55.022Z,100.00
2023-03-24T03:59:56.668Z,100.00
2023-03-24T04:01:58.588Z,100.00
2023-03-24T04:04:27.724Z,100.00
2023-03-24T04:06:42.868Z,100.00
2023-03-24T04:08:51.589Z,100.00
2023-03-24T04:11:11.901Z,100.00
2023-03-24T04:13:31.561Z,100.00
2023-03-24T04:15:34.984Z,100.00
2023-03-24T04:18:07.384Z,100.00
2023-03-24T04:20:32.604Z,100.00
2023-03-24T04:23:14.577Z,100.00
2023-03-24T04:25:27.666Z,100.00
2023-03-24T04:27:38.390Z,100.00
2023-03-24T04:30:27.520Z,100.00
2023-03-24T04:32:46.494Z,100.00
2023-03-24T04:34:54.304Z,100.00
2023-03-24T04:37:05.928Z,100.00
2023-03-24T04:39:09.026Z,100.00
2023-03-24T04:41:10.821Z,100.00
2023-03-24T04:43:17.049Z,100.00
2023-03-24T04:45:19.852Z,100.00
2023-03-24T04:47:24.821Z,100.00
2023-03-24T04:49:27.176Z,100.00
2023-03-24T04:51:29.256Z,100.00
2023-03-24T04:53:30.798Z,100.00
2023-03-24T04:55:50.566Z,100.00
2023-03-24T04:57:52.150Z,100.00
2023-03-24T04:59:53.871Z,100.00
2023-03-24T05:01:55.366Z,100.00
2023-03-24T05:03:58.811Z,100.00
2023-03-24T05:06:00.305Z,100.00
2023-03-24T05:08:02.005Z,100.00
2023-03-24T05:10:03.957Z,100.00
2023-03-24T05:12:05.576Z,100.00
2023-03-24T05:14:07.072Z,100.00
2023-03-24T05:16:08.731Z,100.00
2023-03-24T05:18:10.330Z,100.00
2023-03-24T05:20:12.092Z,100.00
2023-03-24T05:22:13.558Z,100.00
2023-03-24T05:24:15.018Z,100.00
2023-03-24T05:26:16.634Z,100.00
2023-03-24T05:28:18.084Z,100.00
2023-03-24T05:30:20.551Z,100.00
2023-03-24T05:32:22.375Z,100.00
2023-03-24T05:34:23.851Z,100.00
2023-03-24T05:36:25.547Z,100.00
2023-03-24T05:38:27.085Z,100.00
2023-03-24T05:40:28.555Z,100.00
2023-03-24T05:42:30.041Z,100.00
2023-03-24T05:44:31.780Z,100.00
2023-03-24T05:46:33.354Z,100.00
2023-03-24T05:48:34.958Z,100.00
2023-03-24T05:50:36.870Z,100.00
2023-03-24T05:52:38.330Z,100.00
2023-03-24T05:54:40.965Z,100.00
2023-03-24T05:56:42.595Z,100.00
2023-03-24T05:58:45.058Z,100.00
2023-03-24T06:00:47.492Z,100.00
2023-03-24T06:02:49.369Z,100.00
2023-03-24T06:04:51.815Z,100.00
2023-03-24T06:06:55.913Z,100.00
2023-03-24T06:08:58.518Z,100.00
2023-03-24T06:11:02.405Z,100.00
2023-03-24T06:13:04.459Z,100.00
2023-03-24T06:15:07.163Z,100.00
2023-03-24T06:17:08.779Z,100.00
2023-03-24T06:19:10.245Z,100.00
2023-03-24T06:21:11.708Z,100.00
2023-03-24T06:23:13.156Z,100.00
2023-03-24T06:25:16.829Z,99.47
2023-03-24T06:27:21.635Z,98.86
2023-03-24T06:29:23.117Z,97.74
2023-03-24T06:31:27.842Z,96.84
2023-03-24T06:33:29.821Z,96.13
2023-03-24T06:35:31.459Z,96.39
2023-03-24T06:37:33.069Z,96.11
2023-03-24T06:39:34.537Z,94.90
2023-03-24T06:41:36.021Z,95.01
2023-03-24T06:43:37.614Z,93.77
2023-03-24T06:45:40.099Z,93.34
2023-03-24T06:47:41.655Z,92.50
2023-03-24T06:49:43.162Z,92.11
2023-03-24T06:51:44.793Z,92.15
2023-03-24T06:53:46.856Z,92.08
2023-03-24T06:55:51.752Z,91.75
2023-03-24T06:57:53.321Z,91.77
2023-03-24T06:59:55.728Z,92.12
2023-03-24T07:01:57.286Z,92.05
2023-03-24T07:03:58.862Z,91.36
2023-03-24T07:06:00.695Z,91.62
2023-03-24T07:10:07.083Z,91.34
2023-03-24T07:12:08.994Z,90.95
2023-03-24T07:14:10.883Z,90.64
2023-03-24T07:16:12.503Z,90.37
2023-03-24T07:18:14.158Z,89.54
2023-03-24T07:20:16.012Z,88.86
2023-03-24T07:22:17.475Z,88.88
2023-03-24T07:24:19.615Z,88.58
2023-03-24T07:26:21.073Z,88.69
2023-03-24T07:28:22.556Z,88.48
2023-03-24T07:30:33.442Z,88.83
2023-03-24T07:32:39.056Z,88.72
2023-03-24T07:34:41.376Z,88.69
2023-03-24T07:36:42.899Z,89.29
2023-03-24T07:38:44.334Z,89.67
2023-03-24T07:40:46.289Z,89.49
2023-03-24T07:42:47.904Z,89.64
2023-03-24T07:44:49.347Z,89.20
2023-03-24T07:46:51.012Z,88.53
2023-03-24T07:48:52.463Z,87.49
2023-03-24T07:50:54.177Z,86.27
2023-03-24T07:52:57.486Z,85.80
2023-03-24T07:55:01.051Z,85.35
2023-03-24T07:57:02.726Z,85.52
2023-03-24T07:59:04.609Z,84.82
2023-03-24T08:01:10.454Z,85.30
2023-03-24T08:03:14.250Z,85.64
2023-03-24T08:05:16.611Z,85.29
2023-03-24T08:07:19.815Z,82.63
2023-03-24T08:09:24.175Z,82.67
2023-03-24T08:11:25.721Z,83.01
2023-03-24T08:13:27.285Z,82.75
2023-03-24T08:15:28.926Z,82.15
2023-03-24T08:17:30.932Z,81.03
2023-03-24T08:19:32.453Z,81.33
2023-03-24T08:21:33.993Z,81.79
2023-03-24T08:23:37.078Z,81.02
2023-03-24T08:25:38.810Z,80.67
2023-03-24T08:27:43.374Z,81.51
2023-03-24T08:29:44.854Z,80.87
2023-03-24T08:31:46.394Z,80.28
2023-03-24T08:33:47.862Z,80.46
2023-03-24T08:35:49.550Z,79.29
2023-03-24T08:37:52.736Z,80.15
2023-03-24T08:39:58.588Z,80.60
2023-03-24T08:42:00.176Z,79.00
2023-03-24T08:44:07.099Z,77.31
2023-03-24T08:46:11.157Z,76.80
2023-03-24T08:48:14.206Z,77.16
2023-03-24T08:50:16.245Z,76.95
2023-03-24T08:52:18.075Z,76.08
2023-03-24T08:54:21.660Z,76.09
2023-03-24T08:56:23.652Z,75.63
2023-03-24T08:58:25.472Z,74.63
2023-03-24T09:00:28.806Z,74.64
2023-03-24T09:02:30.323Z,74.04
2023-03-24T09:04:32.048Z,74.18
2023-03-24T09:06:34.225Z,72.89
2023-03-24T09:08:35.868Z,71.99
2023-03-24T09:10:37.420Z,73.15
2023-03-24T09:12:39.394Z,72.59
2023-03-24T09:14:40.880Z,72.19
2023-03-24T09:16:43.953Z,72.60
2023-03-24T09:18:46.372Z,73.13
2023-03-24T09:20:48.331Z,73.41
2023-03-24T09:22:49.981Z,72.56
2023-03-24T09:24:51.554Z,73.43
2023-03-24T09:26:53.020Z,73.18
2023-03-24T09:28:54.465Z,72.76
2023-03-24T09:31:01.777Z,73.86
2023-03-24T09:33:03.971Z,72.82
2023-03-24T09:35:07.639Z,73.03
2023-03-24T09:37:09.138Z,73.54
2023-03-24T09:39:10.698Z,73.44
2023-03-24T09:41:18.620Z,73.19
2023-03-24T09:43:46.264Z,71.98
2023-03-24T09:45:51.358Z,71.94
2023-03-24T09:47:58.589Z,73.09
2023-03-24T09:50:08.792Z,74.62
2023-03-24T09:52:19.274Z,73.97
2023-03-24T09:54:27.356Z,73.65
2023-03-24T09:56:32.239Z,72.91
2023-03-24T09:58:33.910Z,72.06
2023-03-24T10:00:36.571Z,72.09
2023-03-24T10:02:38.371Z,70.76
2023-03-24T10:04:40.206Z,70.00
2023-03-24T10:06:42.490Z,69.87
2023-03-24T10:08:50.391Z,69.31
2023-03-24T10:11:02.342Z,66.60
2023-03-24T10:13:12.992Z,66.93
2023-03-24T10:15:17.712Z,66.00
2023-03-24T10:17:29.208Z,66.11
2023-03-24T10:20:03.293Z,66.85
2023-03-24T10:22:39.928Z,66.30
2023-03-24T10:25:05.008Z,66.05
2023-03-24T10:27:13.175Z,67.10
2023-03-24T10:29:23.700Z,66.40
2023-03-24T10:31:32.403Z,66.83
2023-03-24T10:33:37.396Z,66.71
2023-03-24T10:35:51.829Z,66.89
2023-03-24T10:37:57.237Z,67.29
2023-03-24T10:40:00.708Z,66.15
2023-03-24T10:42:02.256Z,66.88
2023-03-24T10:44:03.852Z,68.22
2023-03-24T10:46:06.516Z,68.16
2023-03-24T10:48:09.475Z,68.27
2023-03-24T10:50:14.776Z,68.06
2023-03-24T10:52:17.474Z,67.16
2023-03-24T10:54:24.371Z,67.65
2023-03-24T10:56:39.582Z,67.25
2023-03-24T10:58:43.703Z,66.96
2023-03-24T11:00:45.641Z,65.70
2023-03-24T11:02:56.127Z,63.79
2023-03-24T11:05:29.892Z,63.66
2023-03-24T11:07:40.865Z,62.91
2023-03-24T11:09:45.779Z,62.96
2023-03-24T11:11:47.900Z,64.28
2023-03-24T11:13:57.781Z,64.34
2023-03-24T11:16:15.682Z,60.59
2023-03-24T11:18:18.081Z,58.29
2023-03-24T11:20:27.127Z,56.49
2023-03-24T11:22:28.608Z,55.08
2023-03-24T11:24:31.110Z,55.27
2023-03-24T11:26:35.997Z,54.39
2023-03-24T11:28:52.557Z,51.76
2023-03-24T11:30:55.460Z,49.95
2023-03-24T11:32:57.867Z,50.42
2023-03-24T11:35:20.573Z,50.88
2023-03-24T11:37:33.321Z,51.30
2023-03-24T11:39:35.386Z,51.43
2023-03-24T11:41:39.340Z,51.15
2023-03-24T11:43:41.107Z,52.34
2023-03-24T11:45:45.946Z,52.93
2023-03-24T11:47:48.538Z,51.00
2023-03-24T11:50:14.048Z,51.68
2023-03-24T11:52:23.459Z,51.66
2023-03-24T11:54:33.794Z,59.82
2023-03-24T11:56:41.776Z,55.34
2023-03-24T11:58:47.929Z,54.09
2023-03-24T12:00:58.706Z,53.11
2023-03-24T12:03:37.992Z,53.00
2023-03-24T12:05:41.641Z,51.97
2023-03-24T12:07:53.365Z,52.35
2023-03-24T12:09:58.059Z,60.55
2023-03-24T12:12:30.938Z,52.26
2023-03-24T12:14:51.572Z,53.24
2023-03-24T12:17:09.102Z,53.83
2023-03-24T12:19:35.507Z,56.75
2023-03-24T12:21:58.211Z,56.07
2023-03-24T12:24:08.512Z,55.82
2023-03-24T12:26:17.025Z,55.88
2023-03-24T12:28:38.337Z,53.59
2023-03-24T12:30:42.781Z,52.53
2023-03-24T12:33:27.640Z,51.93
2023-03-24T12:35:50.959Z,51.08
2023-03-24T12:38:17.188Z,51.74
2023-03-24T12:40:41.041Z,50.73
2023-03-24T12:42:45.487Z,53.02
2023-03-24T12:44:59.911Z,50.86
2023-03-24T12:47:30.105Z,50.90
2023-03-24T12:49:48.527Z,49.30
2023-03-24T12:52:16.771Z,49.19
2023-03-24T12:54:45.989Z,49.65
2023-03-24T12:56:57.452Z,49.65
2023-03-24T12:59:06.302Z,47.32
2023-03-24T13:01:19.337Z,48.21
2023-03-24T13:03:33.023Z,46.66
2023-03-24T13:05:40.263Z,46.21
2023-03-24T13:07:47.345Z,48.25
2023-03-24T13:09:55.747Z,47.56
2023-03-24T13:12:12.143Z,50.15
2023-03-24T13:14:21.719Z,49.04
2023-03-24T13:16:27.825Z,47.77
2023-03-24T13:18:51.063Z,47.60
2023-03-24T13:21:07.920Z,46.26
2023-03-24T13:23:18.170Z,46.12
2023-03-24T13:25:32.016Z,47.87
2023-03-24T13:27:38.885Z,47.51
2023-03-24T13:29:58.686Z,47.38
2023-03-24T13:32:08.548Z,47.60
2023-03-24T13:34:30.466Z,51.10
2023-03-24T13:36:42.396Z,49.41
2023-03-24T13:38:51.564Z,48.82
2023-03-24T13:40:56.008Z,49.98
2023-03-24T13:43:00.932Z,50.42
2023-03-24T13:45:07.564Z,50.45
2023-03-24T13:47:08.990Z,50.44
2023-03-24T13:49:16.104Z,49.80
2023-03-24T13:51:38.138Z,50.71
2023-03-24T13:53:46.043Z,52.71
2023-03-24T13:55:52.444Z,53.69
2023-03-24T13:58:08.628Z,52.98
2023-03-24T14:00:20.262Z,52.65
2023-03-24T14:02:41.277Z,52.83
2023-03-24T14:04:55.268Z,54.53
2023-03-24T14:06:59.013Z,52.42
2023-03-24T14:09:33.699Z,51.49
2023-03-24T14:11:35.537Z,51.09
2023-03-24T14:13:46.140Z,49.58
2023-03-24T14:15:58.177Z,49.25
2023-03-24T14:18:24.366Z,50.54
2023-03-24T14:20:32.224Z,50.00
2023-03-24T14:22:35.334Z,49.22
2023-03-24T14:24:38.063Z,49.84
2023-03-24T14:26:40.988Z,50.09
2023-03-24T14:28:50.372Z,50.38
2023-03-24T14:31:17.209Z,49.77
2023-03-24T14:33:26.267Z,50.34
2023-03-24T14:35:45.141Z,50.62
2023-03-24T14:38:00.260Z,51.15
2023-03-24T14:40:01.981Z,50.82
2023-03-24T14:42:34.424Z,51.24
2023-03-24T14:44:57.502Z,51.20
2023-03-24T14:46:59.586Z,50.46
2023-03-24T14:49:32.862Z,50.16
2023-03-24T14:51:52.855Z,51.53
2023-03-24T14:53:58.211Z,51.22
2023-03-24T14:55:59.751Z,51.59
2023-03-24T14:58:11.097Z,51.76
2023-03-24T15:00:26.030Z,52.89
2023-03-24T15:02:37.812Z,53.83
2023-03-24T15:04:39.540Z,55.52
2023-03-24T15:06:46.876Z,53.93
2023-03-24T15:08:53.378Z,55.79
2023-03-24T15:11:04.410Z,57.38
2023-03-24T15:13:06.535Z,59.11
2023-03-24T15:15:16.376Z,59.56
2023-03-24T15:17:25.138Z,59.09
2023-03-24T15:19:29.180Z,59.42
2023-03-24T15:21:37.973Z,60.48
2023-03-24T15:23:39.424Z,59.80
2023-03-24T15:25:41.486Z,60.40
2023-03-24T15:27:50.376Z,61.86
2023-03-24T15:29:58.886Z,59.50
2023-03-24T15:32:00.766Z,59.08
2023-03-24T15:34:27.013Z,58.08
2023-03-24T15:36:40.685Z,59.27
2023-03-24T15:38:46.980Z,59.77
2023-03-24T15:41:00.412Z,59.85
2023-03-24T15:43:08.004Z,58.68
2023-03-24T15:45:22.131Z,58.69
2023-03-24T15:47:27.606Z,58.68
2023-03-24T15:49:34.193Z,58.26
2023-03-24T15:51:55.655Z,57.33
2023-03-24T15:53:59.078Z,57.17
2023-03-24T15:56:05.303Z,58.74
2023-03-24T15:58:27.854Z,57.52
2023-03-24T16:00:37.763Z,58.09
2023-03-24T16:03:09.891Z,58.05
2023-03-24T16:05:31.927Z,58.51
2023-03-24T16:07:35.587Z,58.14
2023-03-24T16:09:40.790Z,58.65
2023-03-24T16:11:42.661Z,58.62
2023-03-24T16:13:45.845Z,58.74
2023-03-24T16:15:55.718Z,57.80
2023-03-24T16:17:57.237Z,59.79
2023-03-24T16:19:58.793Z,58.92
2023-03-24T16:22:00.430Z,61.39
2023-03-24T16:24:02.346Z,59.59
2023-03-24T16:26:03.923Z,62.46
2023-03-24T16:28:07.340Z,61.48
2023-03-24T16:30:37.771Z,62.28
2023-03-24T16:32:39.291Z,64.18
2023-03-24T16:34:41.039Z,64.53
2023-03-24T16:36:42.521Z,64.20
2023-03-24T16:38:48.596Z,63.96
2023-03-24T16:40:52.794Z,64.83
2023-03-24T16:42:54.233Z,65.50
2023-03-24T16:44:55.692Z,65.41
2023-03-24T16:46:57.379Z,65.83
2023-03-24T16:49:00.706Z,66.51
2023-03-24T16:51:02.177Z,66.27
2023-03-24T16:53:04.806Z,66.75
2023-03-24T16:55:07.085Z,67.21
2023-03-24T16:57:08.604Z,68.17
2023-03-24T16:59:12.464Z,67.62
2023-03-24T17:01:33.460Z,66.87
2023-03-24T17:03:35.460Z,67.53
2023-03-24T17:05:44.537Z,67.99
2023-03-24T17:07:46.218Z,67.68
2023-03-24T17:09:50.013Z,67.83
2023-03-24T17:11:54.083Z,67.68
2023-03-24T17:13:59.279Z,68.96
2023-03-24T17:16:00.886Z,69.19
2023-03-24T17:18:03.804Z,69.35
2023-03-24T17:20:06.013Z,70.46
2023-03-24T17:22:07.622Z,70.62
2023-03-24T17:24:10.774Z,71.12
2023-03-24T17:26:12.773Z,71.99
2023-03-24T17:28:17.761Z,72.32
2023-03-24T17:30:22.089Z,72.79
2023-03-24T17:32:32.047Z,73.07
2023-03-24T17:34:33.929Z,73.22
2023-03-24T17:36:36.471Z,73.71
2023-03-24T17:38:40.016Z,74.35
2023-03-24T17:40:41.808Z,74.08
2023-03-24T17:42:46.351Z,74.72
2023-03-24T17:44:49.543Z,74.71
2023-03-24T17:46:51.368Z,75.18
2023-03-24T17:48:52.857Z,75.44
2023-03-24T17:50:56.107Z,75.86
2023-03-24T17:52:57.702Z,75.85
2023-03-24T17:54:59.210Z,76.04
2023-03-24T17:57:01.062Z,76.12
2023-03-24T17:59:03.524Z,76.78
2023-03-24T18:01:09.200Z,76.87
2023-03-24T18:03:11.129Z,77.46
2023-03-24T18:05:13.356Z,77.54
2023-03-24T18:07:14.902Z,77.22
2023-03-24T18:09:17.198Z,77.49
2023-03-24T18:11:19.067Z,77.76
2023-03-24T18:13:20.670Z,78.04
2023-03-24T18:15:22.399Z,77.86
2023-03-24T18:17:24.235Z,78.31
2023-03-24T18:19:25.868Z,78.59
2023-03-24T18:21:28.445Z,79.03
2023-03-24T18:23:30.642Z,78.68
2023-03-24T18:25:32.335Z,78.58
2023-03-24T18:27:34.307Z,78.96
2023-03-24T18:29:38.839Z,79.83
2023-03-24T18:31:40.384Z,79.24
2023-03-24T18:33:43.093Z,80.03
2023-03-24T18:35:54.438Z,79.32
2023-03-24T18:37:56.204Z,79.00
2023-03-24T18:39:57.692Z,78.77
2023-03-24T18:41:59.144Z,79.00
2023-03-24T18:44:00.837Z,79.02
2023-03-24T18:46:02.310Z,79.22
2023-03-24T18:48:04.159Z,79.74
2023-03-24T18:50:06.310Z,79.70
2023-03-24T18:52:09.606Z,79.69
2023-03-24T18:54:12.843Z,79.97
2023-03-24T18:56:15.048Z,79.82
2023-03-24T18:58:17.774Z,79.79
2023-03-24T19:00:20.240Z,79.96
2023-03-24T19:02:21.802Z,80.19
2023-03-24T19:04:23.380Z,80.49
2023-03-24T19:06:31.240Z,80.48
2023-03-24T19:08:35.926Z,80.48
2023-03-24T19:10:37.848Z,80.78
2023-03-24T19:12:39.324Z,80.79
2023-03-24T19:14:42.131Z,81.47
2023-03-24T19:16:43.703Z,81.94
2023-03-24T19:18:45.794Z,81.72
2023-03-24T19:20:47.338Z,81.23
2023-03-24T19:22:48.863Z,81.86
2023-03-24T19:24:50.643Z,81.63
2023-03-24T19:26:53.350Z,81.69
2023-03-24T19:28:54.899Z,81.33
2023-03-24T19:30:57.644Z,81.94
2023-03-24T19:32:59.389Z,81.79
2023-03-24T19:35:01.884Z,81.88
2023-03-24T19:37:03.489Z,82.43
2023-03-24T19:39:06.060Z,82.21
2023-03-24T19:41:10.449Z,82.53
2023-03-24T19:43:12.142Z,82.48
2023-03-24T19:45:16.280Z,83.25
2023-03-24T19:47:18.055Z,83.34
2023-03-24T19:49:21.330Z,83.48
2023-03-24T19:51:24.201Z,83.37
2023-03-24T19:53:26.697Z,83.54
2023-03-24T19:55:29.013Z,84.20
2023-03-24T19:57:31.834Z,83.32
2023-03-24T19:59:33.626Z,83.49
2023-03-24T20:01:36.632Z,83.66
2023-03-24T20:03:38.483Z,83.49
2023-03-24T20:05:40.398Z,83.22
2023-03-24T20:07:41.974Z,83.35
2023-03-24T20:09:43.584Z,83.08
2023-03-24T20:11:45.274Z,83.26
2023-03-24T20:13:46.782Z,83.46
2023-03-24T20:15:48.673Z,83.00
2023-03-24T20:17:50.616Z,83.50
2023-03-24T20:19:52.986Z,83.13
2023-03-24T20:21:54.812Z,83.39
2023-03-24T20:23:56.450Z,84.08
2023-03-24T20:25:59.989Z,83.82
2023-03-24T20:28:01.624Z,83.75
2023-03-24T20:30:04.562Z,84.17
2023-03-24T20:32:07.369Z,84.37
2023-03-24T20:34:11.065Z,83.88
2023-03-24T20:36:12.571Z,84.41
2023-03-24T20:38:14.068Z,84.76
2023-03-24T20:40:15.700Z,84.61
2023-03-24T20:42:18.149Z,85.25
2023-03-24T20:44:19.630Z,85.04
2023-03-24T20:46:21.160Z,85.57
2023-03-24T20:48:23.799Z,85.11
2023-03-24T20:50:25.754Z,85.57
2023-03-24T20:52:28.033Z,85.25
2023-03-24T20:54:29.749Z,85.58
2023-03-24T20:56:31.655Z,86.14
2023-03-24T20:58:35.092Z,85.66
2023-03-24T21:00:37.924Z,85.88
2023-03-24T21:02:43.285Z,86.13
2023-03-24T21:04:44.991Z,86.58
2023-03-24T21:06:46.584Z,86.99
2023-03-24T21:08:48.498Z,87.29
2023-03-24T21:10:50.028Z,87.18
2023-03-24T21:12:52.795Z,87.26
2023-03-24T21:14:56.070Z,87.66
2023-03-24T21:16:58.149Z,87.52
2023-03-24T21:19:01.746Z,88.17
2023-03-24T21:21:03.843Z,88.05
2023-03-24T21:23:09.610Z,88.39
2023-03-24T21:25:11.384Z,88.69
2023-03-24T21:27:12.890Z,89.59
2023-03-24T21:29:14.734Z,88.94
2023-03-24T21:31:22.433Z,89.51
2023-03-24T21:33:24.528Z,89.90
2023-03-24T21:35:26.142Z,89.84
2023-03-24T21:37:30.159Z,90.60
2023-03-24T21:39:31.792Z,91.37
2023-03-24T21:41:33.267Z,91.70
2023-03-24T21:43:35.341Z,93.08
2023-03-24T21:45:37.354Z,93.30
2023-03-24T21:47:39.358Z,94.03
2023-03-24T21:49:42.868Z,95.70
2023-03-24T21:51:44.615Z,95.95
2023-03-24T21:53:47.536Z,96.32
2023-03-24T21:56:04.768Z,96.45
2023-03-24T21:58:06.440Z,97.20
2023-03-24T22:00:14.164Z,97.53
2023-03-24T22:02:18.248Z,97.01
2023-03-24T22:04:20.109Z,97.25
2023-03-24T22:06:22.772Z,97.66
2023-03-24T22:08:26.764Z,98.13
2023-03-24T22:10:34.576Z,97.35
2023-03-24T22:12:36.226Z,98.22
2023-03-24T22:14:37.704Z,98.24
2023-03-24T22:16:39.311Z,97.84
2023-03-24T22:18:41.030Z,98.49
2023-03-24T22:20:42.482Z,98.52
2023-03-24T22:22:44.002Z,98.38
2023-03-24T22:24:45.574Z,98.13
2023-03-24T22:26:47.017Z,98.05
2023-03-24T22:28:48.542Z,97.55
2023-03-24T22:30:50.071Z,98.16
2023-03-24T22:32:51.613Z,97.59
2023-03-24T22:34:53.466Z,97.14
2023-03-24T22:36:54.943Z,97.13
2023-03-24T22:38:56.411Z,97.13
2023-03-24T22:41:02.334Z,96.68
2023-03-24T22:43:03.815Z,96.83
2023-03-24T22:45:05.935Z,96.97
2023-03-24T22:47:07.435Z,96.17
2023-03-24T22:49:08.889Z,96.01
2023-03-24T22:51:12.560Z,95.25
2023-03-24T22:53:14.114Z,95.46
2023-03-24T22:55:15.714Z,95.23
2023-03-24T22:57:18.671Z,95.02
2023-03-24T22:59:20.292Z,95.22
2023-03-24T23:01:21.910Z,94.47
2023-03-24T23:03:23.462Z,94.47
2023-03-24T23:05:25.166Z,94.07
2023-03-24T23:07:28.748Z,93.80
2023-03-24T23:09:30.286Z,94.32
2023-03-24T23:11:33.066Z,93.34
2023-03-24T23:13:35.792Z,93.88
2023-03-24T23:15:42.442Z,92.99
2023-03-24T23:17:45.978Z,93.44
2023-03-24T23:19:47.496Z,93.17
2023-03-24T23:21:49.188Z,93.05
2023-03-24T23:23:51.180Z,93.29
2023-03-24T23:25:52.672Z,93.25
2023-03-24T23:27:54.162Z,92.93
2023-03-24T23:29:56.101Z,92.55
2023-03-24T23:31:57.590Z,92.84
2023-03-24T23:34:00.175Z,93.17
2023-03-24T23:36:02.157Z,93.54
2023-03-24T23:38:05.457Z,93.39
2023-03-24T23:40:14.631Z,92.71
2023-03-24T23:42:16.624Z,93.85
2023-03-24T23:44:19.848Z,92.98
2023-03-24T23:46:22.073Z,93.59
2023-03-24T23:48:24.200Z,93.94
2023-03-24T23:50:27.201Z,93.66
2023-03-24T23:52:28.962Z,93.53
2023-03-24T23:54:31.085Z,93.67
2023-03-24T23:56:37.067Z,94.15
2023-03-24T23:58:41.137Z,94.23
